sensor_id;sensor_type;location;lat;lon;timestamp;P1;durP1;ratioP1;P2;durP2;ratioP2
2992;SDS011;1506;48.932;9.478;2023-02-21T00:00:40;15.33;;;9.43;;
2992;SDS011;1506;48.932;9.478;2023-02-21T00:03:26;17.57;;;10.00;;
2992;SDS011;1506;48.932;9.478;2023-02-21T00:06:12;18.10;;;8.80;;
2992;SDS011;1506;48.932;9.478;2023-02-21T00:08:58;17.40;;;9.10;;
2992;SDS011;1506;48.932;9.478;2023-02-21T00:11:44;20.20;;;11.27;;
2992;SDS011;1506;48.932;9.478;2023-02-21T00:14:30;20.13;;;11.50;;
2992;SDS011;1506;48.932;9.478;2023-02-21T00:17:16;23.83;;;9.30;;
2992;SDS011;1506;48.932;9.478;2023-02-21T00:20:02;16.13;;;9.93;;
2992;SDS011;1506;48.932;9.478;2023-02-21T00:22:48;16.50;;;8.93;;
2992;SDS011;1506;48.932;9.478;2023-02-21T00:25:34;19.33;;;9.27;;
2992;SDS011;1506;48.932;9.478;2023-02-21T00:28:20;14.80;;;9.27;;
2992;SDS011;1506;48.932;9.478;2023-02-21T00:31:06;17.87;;;9.37;;
2992;SDS011;1506;48.932;9.478;2023-02-21T00:33:51;16.40;;;9.70;;
2992;SDS011;1506;48.932;9.478;2023-02-21T00:36:39;17.27;;;9.40;;
2992;SDS011;1506;48.932;9.478;2023-02-21T00:39:24;11.07;;;8.67;;
2992;SDS011;1506;48.932;9.478;2023-02-21T00:42:10;11.30;;;8.30;;
2992;SDS011;1506;48.932;9.478;2023-02-21T00:44:56;11.30;;;9.17;;
2992;SDS011;1506;48.932;9.478;2023-02-21T00:47:42;19.00;;;8.70;;
2992;SDS011;1506;48.932;9.478;2023-02-21T00:50:28;13.77;;;8.40;;
2992;SDS011;1506;48.932;9.478;2023-02-21T00:53:14;12.93;;;8.23;;
2992;SDS011;1506;48.932;9.478;2023-02-21T00:56:00;17.10;;;8.40;;
2992;SDS011;1506;48.932;9.478;2023-02-21T00:58:46;12.17;;;9.43;;
2992;SDS011;1506;48.932;9.478;2023-02-21T01:01:32;15.90;;;9.93;;
2992;SDS011;1506;48.932;9.478;2023-02-21T01:04:17;10.23;;;8.83;;
2992;SDS011;1506;48.932;9.478;2023-02-21T01:07:05;11.37;;;7.57;;
2992;SDS011;1506;48.932;9.478;2023-02-21T01:09:51;21.47;;;9.03;;
2992;SDS011;1506;48.932;9.478;2023-02-21T01:12:37;14.00;;;8.13;;
2992;SDS011;1506;48.932;9.478;2023-02-21T01:15:24;9.40;;;7.93;;
2992;SDS011;1506;48.932;9.478;2023-02-21T01:18:09;9.60;;;8.73;;
2992;SDS011;1506;48.932;9.478;2023-02-21T01:20:55;12.30;;;10.20;;
2992;SDS011;1506;48.932;9.478;2023-02-21T01:23:41;10.90;;;8.73;;
2992;SDS011;1506;48.932;9.478;2023-02-21T01:26:27;8.03;;;7.23;;
2992;SDS011;1506;48.932;9.478;2023-02-21T01:29:13;13.47;;;9.70;;
2992;SDS011;1506;48.932;9.478;2023-02-21T01:31:59;33.33;;;9.50;;
2992;SDS011;1506;48.932;9.478;2023-02-21T01:34:45;14.97;;;10.10;;
2992;SDS011;1506;48.932;9.478;2023-02-21T01:37:31;13.27;;;8.07;;
2992;SDS011;1506;48.932;9.478;2023-02-21T01:40:16;13.80;;;9.37;;
2992;SDS011;1506;48.932;9.478;2023-02-21T01:43:07;15.70;;;9.90;;
2992;SDS011;1506;48.932;9.478;2023-02-21T01:45:58;13.50;;;9.13;;
2992;SDS011;1506;48.932;9.478;2023-02-21T01:48:46;14.80;;;9.67;;
2992;SDS011;1506;48.932;9.478;2023-02-21T01:51:33;11.80;;;9.33;;
2992;SDS011;1506;48.932;9.478;2023-02-21T01:54:22;10.90;;;7.30;;
2992;SDS011;1506;48.932;9.478;2023-02-21T01:57:12;12.00;;;8.23;;
2992;SDS011;1506;48.932;9.478;2023-02-21T01:59:59;9.83;;;7.60;;
2992;SDS011;1506;48.932;9.478;2023-02-21T02:02:58;10.67;;;7.90;;
2992;SDS011;1506;48.932;9.478;2023-02-21T02:05:55;11.20;;;8.13;;
2992;SDS011;1506;48.932;9.478;2023-02-21T02:08:42;8.50;;;7.53;;
2992;SDS011;1506;48.932;9.478;2023-02-21T02:14:39;14.97;;;9.23;;
2992;SDS011;1506;48.932;9.478;2023-02-21T02:25:39;11.93;;;8.13;;
2992;SDS011;1506;48.932;9.478;2023-02-21T02:31:15;12.10;;;8.20;;
2992;SDS011;1506;48.932;9.478;2023-02-21T02:37:04;17.47;;;9.07;;
2992;SDS011;1506;48.932;9.478;2023-02-21T02:45:18;15.30;;;9.87;;
2992;SDS011;1506;48.932;9.478;2023-02-21T02:48:12;16.33;;;8.63;;
2992;SDS011;1506;48.932;9.478;2023-02-21T02:50:43;10.90;;;8.40;;
2992;SDS011;1506;48.932;9.478;2023-02-21T02:53:15;10.83;;;8.67;;
2992;SDS011;1506;48.932;9.478;2023-02-21T02:55:50;15.00;;;9.40;;
2992;SDS011;1506;48.932;9.478;2023-02-21T02:58:19;16.57;;;9.00;;
2992;SDS011;1506;48.932;9.478;2023-02-21T03:00:55;12.30;;;8.57;;
2992;SDS011;1506;48.932;9.478;2023-02-21T03:08:58;11.50;;;9.30;;
2992;SDS011;1506;48.932;9.478;2023-02-21T03:12:28;17.77;;;9.83;;
2992;SDS011;1506;48.932;9.478;2023-02-21T03:14:51;9.23;;;8.33;;
2992;SDS011;1506;48.932;9.478;2023-02-21T03:17:42;21.40;;;10.47;;
2992;SDS011;1506;48.932;9.478;2023-02-21T03:20:13;12.90;;;8.80;;
2992;SDS011;1506;48.932;9.478;2023-02-21T03:22:41;14.70;;;7.97;;
2992;SDS011;1506;48.932;9.478;2023-02-21T03:25:10;11.90;;;9.17;;
2992;SDS011;1506;48.932;9.478;2023-02-21T03:27:40;12.10;;;7.60;;
2992;SDS011;1506;48.932;9.478;2023-02-21T03:30:27;8.23;;;7.43;;
2992;SDS011;1506;48.932;9.478;2023-02-21T03:32:56;23.10;;;8.30;;
2992;SDS011;1506;48.932;9.478;2023-02-21T03:35:24;12.23;;;8.17;;
2992;SDS011;1506;48.932;9.478;2023-02-21T03:37:57;14.07;;;7.70;;
2992;SDS011;1506;48.932;9.478;2023-02-21T03:40:27;10.50;;;8.20;;
2992;SDS011;1506;48.932;9.478;2023-02-21T03:42:58;9.33;;;7.20;;
2992;SDS011;1506;48.932;9.478;2023-02-21T03:45:33;8.03;;;7.33;;
2992;SDS011;1506;48.932;9.478;2023-02-21T03:48:27;11.73;;;7.33;;
2992;SDS011;1506;48.932;9.478;2023-02-21T03:51:18;9.73;;;7.13;;
2992;SDS011;1506;48.932;9.478;2023-02-21T03:53:46;10.10;;;7.57;;
2992;SDS011;1506;48.932;9.478;2023-02-21T03:56:15;14.83;;;8.20;;
2992;SDS011;1506;48.932;9.478;2023-02-21T03:59:09;16.37;;;8.60;;
2992;SDS011;1506;48.932;9.478;2023-02-21T04:01:37;11.73;;;7.97;;
2992;SDS011;1506;48.932;9.478;2023-02-21T04:04:05;14.30;;;8.57;;
2992;SDS011;1506;48.932;9.478;2023-02-21T04:06:32;8.17;;;7.30;;
2992;SDS011;1506;48.932;9.478;2023-02-21T04:09:00;10.17;;;7.53;;
2992;SDS011;1506;48.932;9.478;2023-02-21T04:11:29;9.77;;;7.60;;
2992;SDS011;1506;48.932;9.478;2023-02-21T04:13:57;11.17;;;6.77;;
2992;SDS011;1506;48.932;9.478;2023-02-21T04:16:25;9.50;;;7.47;;
2992;SDS011;1506;48.932;9.478;2023-02-21T04:18:54;12.07;;;8.43;;
2992;SDS011;1506;48.932;9.478;2023-02-21T04:21:23;9.10;;;6.80;;
2992;SDS011;1506;48.932;9.478;2023-02-21T04:23:53;7.77;;;7.00;;
2992;SDS011;1506;48.932;9.478;2023-02-21T04:26:24;12.03;;;7.87;;
2992;SDS011;1506;48.932;9.478;2023-02-21T04:28:52;13.90;;;7.27;;
2992;SDS011;1506;48.932;9.478;2023-02-21T04:31:20;10.03;;;7.57;;
2992;SDS011;1506;48.932;9.478;2023-02-21T04:33:49;8.03;;;6.80;;
2992;SDS011;1506;48.932;9.478;2023-02-21T04:36:31;13.60;;;7.70;;
2992;SDS011;1506;48.932;9.478;2023-02-21T04:38:59;14.03;;;8.10;;
2992;SDS011;1506;48.932;9.478;2023-02-21T04:41:26;12.13;;;7.90;;
2992;SDS011;1506;48.932;9.478;2023-02-21T04:43:54;13.33;;;8.27;;
2992;SDS011;1506;48.932;9.478;2023-02-21T04:46:21;14.00;;;8.67;;
2992;SDS011;1506;48.932;9.478;2023-02-21T04:48:50;19.10;;;8.57;;
2992;SDS011;1506;48.932;9.478;2023-02-21T04:51:20;17.97;;;8.00;;
2992;SDS011;1506;48.932;9.478;2023-02-21T04:53:48;9.97;;;7.90;;
2992;SDS011;1506;48.932;9.478;2023-02-21T04:56:17;12.20;;;8.10;;
2992;SDS011;1506;48.932;9.478;2023-02-21T04:58:46;10.17;;;7.70;;
2992;SDS011;1506;48.932;9.478;2023-02-21T05:01:14;12.80;;;7.23;;
2992;SDS011;1506;48.932;9.478;2023-02-21T05:03:43;8.30;;;7.53;;
2992;SDS011;1506;48.932;9.478;2023-02-21T05:06:18;13.93;;;9.10;;
2992;SDS011;1506;48.932;9.478;2023-02-21T05:08:47;12.80;;;7.87;;
2992;SDS011;1506;48.932;9.478;2023-02-21T05:11:15;10.97;;;6.60;;
2992;SDS011;1506;48.932;9.478;2023-02-21T05:13:43;14.83;;;8.13;;
2992;SDS011;1506;48.932;9.478;2023-02-21T05:16:11;8.70;;;7.03;;
2992;SDS011;1506;48.932;9.478;2023-02-21T05:18:40;13.00;;;7.70;;
2992;SDS011;1506;48.932;9.478;2023-02-21T05:21:08;18.33;;;8.40;;
2992;SDS011;1506;48.932;9.478;2023-02-21T05:23:37;10.87;;;9.00;;
2992;SDS011;1506;48.932;9.478;2023-02-21T05:26:07;12.97;;;7.77;;
2992;SDS011;1506;48.932;9.478;2023-02-21T05:28:36;11.97;;;7.57;;
2992;SDS011;1506;48.932;9.478;2023-02-21T05:31:04;14.13;;;8.13;;
2992;SDS011;1506;48.932;9.478;2023-02-21T05:33:32;29.53;;;8.77;;
2992;SDS011;1506;48.932;9.478;2023-02-21T05:35:59;12.60;;;8.30;;
2992;SDS011;1506;48.932;9.478;2023-02-21T05:38:27;17.40;;;7.83;;
2992;SDS011;1506;48.932;9.478;2023-02-21T05:40:54;13.03;;;7.00;;
2992;SDS011;1506;48.932;9.478;2023-02-21T05:43:22;18.97;;;8.33;;
2992;SDS011;1506;48.932;9.478;2023-02-21T05:45:49;15.10;;;9.30;;
2992;SDS011;1506;48.932;9.478;2023-02-21T05:48:16;10.50;;;8.97;;
2992;SDS011;1506;48.932;9.478;2023-02-21T05:50:44;19.40;;;9.87;;
2992;SDS011;1506;48.932;9.478;2023-02-21T05:53:11;21.00;;;8.83;;
2992;SDS011;1506;48.932;9.478;2023-02-21T05:55:38;15.63;;;10.47;;
2992;SDS011;1506;48.932;9.478;2023-02-21T05:58:06;16.33;;;9.20;;
2992;SDS011;1506;48.932;9.478;2023-02-21T06:00:33;10.47;;;8.50;;
2992;SDS011;1506;48.932;9.478;2023-02-21T06:03:01;9.73;;;7.13;;
2992;SDS011;1506;48.932;9.478;2023-02-21T06:05:30;12.37;;;8.10;;
2992;SDS011;1506;48.932;9.478;2023-02-21T06:07:58;8.10;;;7.30;;
2992;SDS011;1506;48.932;9.478;2023-02-21T06:10:25;16.30;;;8.00;;
2992;SDS011;1506;48.932;9.478;2023-02-21T06:12:53;16.20;;;9.00;;
2992;SDS011;1506;48.932;9.478;2023-02-21T06:15:20;27.13;;;11.10;;
2992;SDS011;1506;48.932;9.478;2023-02-21T06:17:47;20.83;;;10.17;;
2992;SDS011;1506;48.932;9.478;2023-02-21T06:20:15;19.93;;;9.87;;
2992;SDS011;1506;48.932;9.478;2023-02-21T06:22:43;24.50;;;9.60;;
2992;SDS011;1506;48.932;9.478;2023-02-21T06:25:10;24.13;;;11.47;;
2992;SDS011;1506;48.932;9.478;2023-02-21T06:27:38;25.00;;;9.00;;
2992;SDS011;1506;48.932;9.478;2023-02-21T06:30:05;30.13;;;10.83;;
2992;SDS011;1506;48.932;9.478;2023-02-21T06:32:33;15.00;;;9.23;;
2992;SDS011;1506;48.932;9.478;2023-02-21T06:35:00;23.73;;;9.43;;
2992;SDS011;1506;48.932;9.478;2023-02-21T06:37:28;23.10;;;10.40;;
2992;SDS011;1506;48.932;9.478;2023-02-21T06:39:55;20.33;;;9.70;;
2992;SDS011;1506;48.932;9.478;2023-02-21T06:42:23;22.80;;;10.40;;
2992;SDS011;1506;48.932;9.478;2023-02-21T06:44:51;17.30;;;10.00;;
2992;SDS011;1506;48.932;9.478;2023-02-21T06:47:18;21.30;;;8.30;;
2992;SDS011;1506;48.932;9.478;2023-02-21T06:49:46;20.67;;;9.60;;
2992;SDS011;1506;48.932;9.478;2023-02-21T06:52:13;13.67;;;9.37;;
2992;SDS011;1506;48.932;9.478;2023-02-21T06:54:41;14.87;;;8.00;;
2992;SDS011;1506;48.932;9.478;2023-02-21T06:57:08;12.70;;;7.87;;
2992;SDS011;1506;48.932;9.478;2023-02-21T06:59:35;18.50;;;10.30;;
2992;SDS011;1506;48.932;9.478;2023-02-21T07:02:03;18.10;;;9.73;;
2992;SDS011;1506;48.932;9.478;2023-02-21T07:04:30;37.53;;;9.93;;
2992;SDS011;1506;48.932;9.478;2023-02-21T07:06:58;17.00;;;10.73;;
2992;SDS011;1506;48.932;9.478;2023-02-21T07:09:25;18.83;;;8.60;;
2992;SDS011;1506;48.932;9.478;2023-02-21T07:11:53;23.40;;;9.20;;
2992;SDS011;1506;48.932;9.478;2023-02-21T07:14:20;17.60;;;9.23;;
2992;SDS011;1506;48.932;9.478;2023-02-21T07:16:47;23.03;;;10.67;;
2992;SDS011;1506;48.932;9.478;2023-02-21T07:19:15;17.83;;;8.60;;
2992;SDS011;1506;48.932;9.478;2023-02-21T07:21:46;16.33;;;9.30;;
2992;SDS011;1506;48.932;9.478;2023-02-21T07:24:13;16.60;;;10.07;;
2992;SDS011;1506;48.932;9.478;2023-02-21T07:26:41;17.50;;;10.00;;
2992;SDS011;1506;48.932;9.478;2023-02-21T07:29:08;21.53;;;10.47;;
2992;SDS011;1506;48.932;9.478;2023-02-21T07:31:36;14.30;;;9.77;;
2992;SDS011;1506;48.932;9.478;2023-02-21T07:34:03;19.87;;;11.10;;
2992;SDS011;1506;48.932;9.478;2023-02-21T07:36:30;21.10;;;10.37;;
2992;SDS011;1506;48.932;9.478;2023-02-21T07:38:58;16.37;;;10.27;;
2992;SDS011;1506;48.932;9.478;2023-02-21T07:41:25;20.60;;;10.20;;
2992;SDS011;1506;48.932;9.478;2023-02-21T07:43:52;23.53;;;11.17;;
2992;SDS011;1506;48.932;9.478;2023-02-21T07:46:20;19.90;;;11.20;;
2992;SDS011;1506;48.932;9.478;2023-02-21T07:48:53;18.47;;;11.30;;
2992;SDS011;1506;48.932;9.478;2023-02-21T07:51:20;12.40;;;9.67;;
2992;SDS011;1506;48.932;9.478;2023-02-21T07:53:48;33.73;;;10.23;;
2992;SDS011;1506;48.932;9.478;2023-02-21T07:56:15;24.07;;;9.50;;
2992;SDS011;1506;48.932;9.478;2023-02-21T07:58:43;11.80;;;8.13;;
2992;SDS011;1506;48.932;9.478;2023-02-21T08:01:10;12.57;;;7.90;;
2992;SDS011;1506;48.932;9.478;2023-02-21T08:03:38;12.30;;;8.83;;
2992;SDS011;1506;48.932;9.478;2023-02-21T08:06:07;10.90;;;8.40;;
2992;SDS011;1506;48.932;9.478;2023-02-21T08:08:34;10.40;;;7.97;;
2992;SDS011;1506;48.932;9.478;2023-02-21T08:11:02;10.97;;;8.13;;
2992;SDS011;1506;48.932;9.478;2023-02-21T08:13:29;12.10;;;7.90;;
2992;SDS011;1506;48.932;9.478;2023-02-21T08:15:57;20.40;;;8.97;;
2992;SDS011;1506;48.932;9.478;2023-02-21T08:18:24;14.17;;;9.20;;
2992;SDS011;1506;48.932;9.478;2023-02-21T08:20:53;11.33;;;6.87;;
2992;SDS011;1506;48.932;9.478;2023-02-21T08:23:21;11.83;;;8.70;;
2992;SDS011;1506;48.932;9.478;2023-02-21T08:25:49;7.80;;;6.90;;
2992;SDS011;1506;48.932;9.478;2023-02-21T08:28:16;18.53;;;9.60;;
2992;SDS011;1506;48.932;9.478;2023-02-21T08:30:44;10.37;;;9.27;;
2992;SDS011;1506;48.932;9.478;2023-02-21T08:33:11;17.10;;;8.67;;
2992;SDS011;1506;48.932;9.478;2023-02-21T08:35:38;8.93;;;7.50;;
2992;SDS011;1506;48.932;9.478;2023-02-21T08:38:06;13.80;;;7.90;;
2992;SDS011;1506;48.932;9.478;2023-02-21T08:40:35;11.40;;;8.50;;
2992;SDS011;1506;48.932;9.478;2023-02-21T08:43:03;10.33;;;6.97;;
2992;SDS011;1506;48.932;9.478;2023-02-21T08:45:31;7.17;;;6.43;;
2992;SDS011;1506;48.932;9.478;2023-02-21T08:47:58;12.70;;;7.57;;
2992;SDS011;1506;48.932;9.478;2023-02-21T08:50:26;21.70;;;8.20;;
2992;SDS011;1506;48.932;9.478;2023-02-21T08:52:54;10.40;;;7.40;;
2992;SDS011;1506;48.932;9.478;2023-02-21T08:55:23;19.00;;;7.80;;
2992;SDS011;1506;48.932;9.478;2023-02-21T08:57:51;8.47;;;7.60;;
2992;SDS011;1506;48.932;9.478;2023-02-21T09:00:21;10.60;;;7.17;;
2992;SDS011;1506;48.932;9.478;2023-02-21T09:02:50;14.83;;;6.13;;
2992;SDS011;1506;48.932;9.478;2023-02-21T09:05:19;8.93;;;6.20;;
2992;SDS011;1506;48.932;9.478;2023-02-21T09:07:52;8.47;;;7.13;;
2992;SDS011;1506;48.932;9.478;2023-02-21T09:10:24;9.40;;;6.07;;
2992;SDS011;1506;48.932;9.478;2023-02-21T09:12:53;8.03;;;7.23;;
2992;SDS011;1506;48.932;9.478;2023-02-21T09:15:20;11.53;;;6.70;;
2992;SDS011;1506;48.932;9.478;2023-02-21T09:17:48;7.30;;;6.67;;
2992;SDS011;1506;48.932;9.478;2023-02-21T09:20:17;7.07;;;6.37;;
2992;SDS011;1506;48.932;9.478;2023-02-21T09:22:50;11.53;;;7.33;;
2992;SDS011;1506;48.932;9.478;2023-02-21T09:25:18;8.70;;;6.83;;
2992;SDS011;1506;48.932;9.478;2023-02-21T09:27:48;10.53;;;6.20;;
2992;SDS011;1506;48.932;9.478;2023-02-21T09:30:19;6.90;;;6.20;;
2992;SDS011;1506;48.932;9.478;2023-02-21T09:32:49;8.30;;;5.80;;
2992;SDS011;1506;48.932;9.478;2023-02-21T09:35:17;5.83;;;5.17;;
2992;SDS011;1506;48.932;9.478;2023-02-21T09:37:44;10.17;;;4.57;;
2992;SDS011;1506;48.932;9.478;2023-02-21T09:40:25;4.23;;;3.93;;
2992;SDS011;1506;48.932;9.478;2023-02-21T09:42:59;3.03;;;2.93;;
2992;SDS011;1506;48.932;9.478;2023-02-21T09:45:32;3.90;;;3.60;;
2992;SDS011;1506;48.932;9.478;2023-02-21T09:48:12;5.07;;;3.93;;
2992;SDS011;1506;48.932;9.478;2023-02-21T09:50:43;4.90;;;4.63;;
2992;SDS011;1506;48.932;9.478;2023-02-21T09:53:18;5.40;;;4.47;;
2992;SDS011;1506;48.932;9.478;2023-02-21T09:55:56;6.43;;;5.20;;
2992;SDS011;1506;48.932;9.478;2023-02-21T09:58:26;8.37;;;4.63;;
2992;SDS011;1506;48.932;9.478;2023-02-21T10:01:00;4.20;;;3.90;;
2992;SDS011;1506;48.932;9.478;2023-02-21T10:03:41;4.63;;;4.10;;
2992;SDS011;1506;48.932;9.478;2023-02-21T10:11:34;8.40;;;5.23;;
2992;SDS011;1506;48.932;9.478;2023-02-21T10:14:26;5.83;;;5.00;;
2992;SDS011;1506;48.932;9.478;2023-02-21T10:17:12;5.17;;;4.63;;
2992;SDS011;1506;48.932;9.478;2023-02-21T10:19:42;5.60;;;4.33;;
2992;SDS011;1506;48.932;9.478;2023-02-21T10:22:17;5.40;;;4.53;;
2992;SDS011;1506;48.932;9.478;2023-02-21T10:24:47;5.17;;;4.77;;
2992;SDS011;1506;48.932;9.478;2023-02-21T10:27:19;13.67;;;5.80;;
2992;SDS011;1506;48.932;9.478;2023-02-21T10:29:53;6.17;;;5.67;;
2992;SDS011;1506;48.932;9.478;2023-02-21T10:32:22;6.43;;;5.57;;
2992;SDS011;1506;48.932;9.478;2023-02-21T10:34:50;6.03;;;4.50;;
2992;SDS011;1506;48.932;9.478;2023-02-21T10:37:37;6.60;;;5.40;;
2992;SDS011;1506;48.932;9.478;2023-02-21T10:43:02;5.80;;;5.40;;
2992;SDS011;1506;48.932;9.478;2023-02-21T10:45:41;10.13;;;5.67;;
2992;SDS011;1506;48.932;9.478;2023-02-21T10:48:30;5.83;;;5.30;;
2992;SDS011;1506;48.932;9.478;2023-02-21T10:53:41;5.60;;;5.20;;
2992;SDS011;1506;48.932;9.478;2023-02-21T10:58:45;8.10;;;6.07;;
2992;SDS011;1506;48.932;9.478;2023-02-21T11:01:49;15.17;;;4.77;;
2992;SDS011;1506;48.932;9.478;2023-02-21T11:06:47;12.57;;;6.63;;
2992;SDS011;1506;48.932;9.478;2023-02-21T11:09:23;7.00;;;6.30;;
2992;SDS011;1506;48.932;9.478;2023-02-21T11:12:04;8.93;;;6.17;;
2992;SDS011;1506;48.932;9.478;2023-02-21T11:14:42;8.77;;;6.20;;
2992;SDS011;1506;48.932;9.478;2023-02-21T11:17:19;5.63;;;5.13;;
2992;SDS011;1506;48.932;9.478;2023-02-21T11:22:38;6.53;;;5.63;;
2992;SDS011;1506;48.932;9.478;2023-02-21T11:25:22;13.53;;;5.90;;
2992;SDS011;1506;48.932;9.478;2023-02-21T11:28:01;4.70;;;4.30;;
2992;SDS011;1506;48.932;9.478;2023-02-21T11:30:31;7.60;;;4.90;;
2992;SDS011;1506;48.932;9.478;2023-02-21T11:33:01;7.50;;;5.00;;
2992;SDS011;1506;48.932;9.478;2023-02-21T11:38:28;5.10;;;4.60;;
2992;SDS011;1506;48.932;9.478;2023-02-21T11:40:56;6.33;;;4.70;;
2992;SDS011;1506;48.932;9.478;2023-02-21T11:43:24;10.60;;;6.13;;
2992;SDS011;1506;48.932;9.478;2023-02-21T11:48:28;9.47;;;5.27;;
2992;SDS011;1506;48.932;9.478;2023-02-21T11:51:04;6.07;;;5.00;;
2992;SDS011;1506;48.932;9.478;2023-02-21T11:53:40;10.63;;;4.80;;
2992;SDS011;1506;48.932;9.478;2023-02-21T12:04:40;6.60;;;4.00;;
2992;SDS011;1506;48.932;9.478;2023-02-21T12:15:20;3.97;;;3.63;;
2992;SDS011;1506;48.932;9.478;2023-02-21T12:18:11;4.17;;;3.80;;
2992;SDS011;1506;48.932;9.478;2023-02-21T12:23:52;3.83;;;3.50;;
2992;SDS011;1506;48.932;9.478;2023-02-21T12:26:43;3.80;;;3.50;;
2992;SDS011;1506;48.932;9.478;2023-02-21T12:38:30;3.30;;;3.10;;
2992;SDS011;1506;48.932;9.478;2023-02-21T12:49:50;2.87;;;2.67;;
2992;SDS011;1506;48.932;9.478;2023-02-21T12:52:17;2.90;;;2.70;;
2992;SDS011;1506;48.932;9.478;2023-02-21T12:57:34;3.13;;;2.57;;
2992;SDS011;1506;48.932;9.478;2023-02-21T13:00:21;2.00;;;1.83;;
2992;SDS011;1506;48.932;9.478;2023-02-21T13:02:54;5.70;;;2.33;;
2992;SDS011;1506;48.932;9.478;2023-02-21T13:05:54;2.97;;;2.70;;
2992;SDS011;1506;48.932;9.478;2023-02-21T13:10:55;4.63;;;2.90;;
2992;SDS011;1506;48.932;9.478;2023-02-21T13:13:46;3.17;;;2.87;;
2992;SDS011;1506;48.932;9.478;2023-02-21T13:16:13;3.40;;;2.70;;
2992;SDS011;1506;48.932;9.478;2023-02-21T13:18:53;3.03;;;2.73;;
2992;SDS011;1506;48.932;9.478;2023-02-21T13:24:27;2.77;;;2.57;;
2992;SDS011;1506;48.932;9.478;2023-02-21T13:29:48;2.97;;;2.43;;
2992;SDS011;1506;48.932;9.478;2023-02-21T13:32:17;2.70;;;2.50;;
2992;SDS011;1506;48.932;9.478;2023-02-21T13:34:52;7.73;;;3.40;;
2992;SDS011;1506;48.932;9.478;2023-02-21T13:37:28;4.97;;;3.13;;
2992;SDS011;1506;48.932;9.478;2023-02-21T13:40:15;3.17;;;2.97;;
2992;SDS011;1506;48.932;9.478;2023-02-21T13:42:57;5.93;;;3.80;;
2992;SDS011;1506;48.932;9.478;2023-02-21T13:45:36;4.73;;;3.70;;
2992;SDS011;1506;48.932;9.478;2023-02-21T13:53:14;3.60;;;3.30;;
2992;SDS011;1506;48.932;9.478;2023-02-21T13:58:35;3.33;;;3.07;;
2992;SDS011;1506;48.932;9.478;2023-02-21T14:03:54;3.77;;;2.80;;
2992;SDS011;1506;48.932;9.478;2023-02-21T14:06:24;2.70;;;2.53;;
2992;SDS011;1506;48.932;9.478;2023-02-21T14:08:59;9.93;;;3.57;;
2992;SDS011;1506;48.932;9.478;2023-02-21T14:11:42;2.60;;;2.40;;
2992;SDS011;1506;48.932;9.478;2023-02-21T14:14:31;5.23;;;2.80;;
2992;SDS011;1506;48.932;9.478;2023-02-21T14:17:02;3.33;;;3.13;;
2992;SDS011;1506;48.932;9.478;2023-02-21T14:19:41;3.43;;;2.23;;
2992;SDS011;1506;48.932;9.478;2023-02-21T14:22:13;2.00;;;1.90;;
2992;SDS011;1506;48.932;9.478;2023-02-21T14:24:50;2.97;;;2.60;;
2992;SDS011;1506;48.932;9.478;2023-02-21T14:27:30;2.53;;;2.37;;
2992;SDS011;1506;48.932;9.478;2023-02-21T14:38:04;3.23;;;2.80;;
2992;SDS011;1506;48.932;9.478;2023-02-21T14:43:31;2.90;;;2.30;;
2992;SDS011;1506;48.932;9.478;2023-02-21T14:54:48;1.63;;;1.53;;
2992;SDS011;1506;48.932;9.478;2023-02-21T15:00:27;2.47;;;2.27;;
2992;SDS011;1506;48.932;9.478;2023-02-21T15:05:52;3.50;;;1.87;;
2992;SDS011;1506;48.932;9.478;2023-02-21T15:08:28;7.67;;;2.97;;
2992;SDS011;1506;48.932;9.478;2023-02-21T15:11:12;3.50;;;3.10;;
2992;SDS011;1506;48.932;9.478;2023-02-21T15:16:55;2.47;;;2.37;;
2992;SDS011;1506;48.932;9.478;2023-02-21T15:19:25;2.93;;;2.40;;
2992;SDS011;1506;48.932;9.478;2023-02-21T15:27:33;3.17;;;1.90;;
2992;SDS011;1506;48.932;9.478;2023-02-21T15:30:04;2.67;;;1.50;;
2992;SDS011;1506;48.932;9.478;2023-02-21T15:32:35;1.90;;;1.80;;
2992;SDS011;1506;48.932;9.478;2023-02-21T15:35:03;1.70;;;1.60;;
2992;SDS011;1506;48.932;9.478;2023-02-21T15:37:32;6.37;;;2.10;;
2992;SDS011;1506;48.932;9.478;2023-02-21T15:40:10;2.90;;;2.13;;
2992;SDS011;1506;48.932;9.478;2023-02-21T15:42:46;4.27;;;2.00;;
2992;SDS011;1506;48.932;9.478;2023-02-21T15:45:24;2.00;;;1.90;;
2992;SDS011;1506;48.932;9.478;2023-02-21T15:47:54;1.67;;;1.37;;
2992;SDS011;1506;48.932;9.478;2023-02-21T15:50:29;2.43;;;1.93;;
2992;SDS011;1506;48.932;9.478;2023-02-21T15:53:09;6.23;;;1.33;;
2992;SDS011;1506;48.932;9.478;2023-02-21T15:55:37;2.00;;;1.57;;
2992;SDS011;1506;48.932;9.478;2023-02-21T16:00:34;2.50;;;1.57;;
2992;SDS011;1506;48.932;9.478;2023-02-21T16:05:52;2.30;;;1.47;;
2992;SDS011;1506;48.932;9.478;2023-02-21T16:08:20;10.93;;;1.77;;
2992;SDS011;1506;48.932;9.478;2023-02-21T16:10:48;1.53;;;1.43;;
2992;SDS011;1506;48.932;9.478;2023-02-21T16:13:15;3.57;;;1.60;;
2992;SDS011;1506;48.932;9.478;2023-02-21T16:15:44;3.80;;;3.60;;
2992;SDS011;1506;48.932;9.478;2023-02-21T16:18:15;2.10;;;2.00;;
2992;SDS011;1506;48.932;9.478;2023-02-21T16:20:44;6.53;;;2.00;;
2992;SDS011;1506;48.932;9.478;2023-02-21T16:26:31;5.63;;;1.97;;
2992;SDS011;1506;48.932;9.478;2023-02-21T16:28:42;1.47;;;1.27;;
2992;SDS011;1506;48.932;9.478;2023-02-21T16:31:15;1.97;;;1.87;;
2992;SDS011;1506;48.932;9.478;2023-02-21T16:33:51;1.90;;;1.80;;
2992;SDS011;1506;48.932;9.478;2023-02-21T16:36:20;2.70;;;1.47;;
2992;SDS011;1506;48.932;9.478;2023-02-21T16:38:53;1.53;;;1.43;;
2992;SDS011;1506;48.932;9.478;2023-02-21T16:41:21;14.43;;;2.57;;
2992;SDS011;1506;48.932;9.478;2023-02-21T16:43:49;4.47;;;3.50;;
2992;SDS011;1506;48.932;9.478;2023-02-21T16:46:22;7.83;;;3.80;;
2992;SDS011;1506;48.932;9.478;2023-02-21T16:48:54;5.90;;;2.37;;
2992;SDS011;1506;48.932;9.478;2023-02-21T16:51:22;5.03;;;2.70;;
2992;SDS011;1506;48.932;9.478;2023-02-21T16:53:49;2.73;;;2.53;;
2992;SDS011;1506;48.932;9.478;2023-02-21T16:56:17;2.97;;;2.77;;
2992;SDS011;1506;48.932;9.478;2023-02-21T16:58:46;10.30;;;8.60;;
2992;SDS011;1506;48.932;9.478;2023-02-21T17:01:33;7.37;;;3.50;;
2992;SDS011;1506;48.932;9.478;2023-02-21T17:04:02;3.70;;;3.20;;
2992;SDS011;1506;48.932;9.478;2023-02-21T17:06:32;20.13;;;16.67;;
2992;SDS011;1506;48.932;9.478;2023-02-21T17:09:00;6.07;;;5.13;;
2992;SDS011;1506;48.932;9.478;2023-02-21T17:11:27;10.17;;;6.27;;
2992;SDS011;1506;48.932;9.478;2023-02-21T17:13:55;6.67;;;6.07;;
2992;SDS011;1506;48.932;9.478;2023-02-21T17:16:22;6.33;;;4.53;;
2992;SDS011;1506;48.932;9.478;2023-02-21T17:18:50;4.93;;;4.53;;
2992;SDS011;1506;48.932;9.478;2023-02-21T17:21:17;7.63;;;5.20;;
2992;SDS011;1506;48.932;9.478;2023-02-21T17:23:44;6.90;;;4.80;;
2992;SDS011;1506;48.932;9.478;2023-02-21T17:26:12;6.30;;;5.90;;
2992;SDS011;1506;48.932;9.478;2023-02-21T17:28:42;10.27;;;4.70;;
2992;SDS011;1506;48.932;9.478;2023-02-21T17:31:13;6.53;;;5.50;;
2992;SDS011;1506;48.932;9.478;2023-02-21T17:33:44;6.50;;;5.20;;
2992;SDS011;1506;48.932;9.478;2023-02-21T17:36:18;7.90;;;6.00;;
2992;SDS011;1506;48.932;9.478;2023-02-21T17:38:46;6.13;;;5.33;;
2992;SDS011;1506;48.932;9.478;2023-02-21T17:41:14;11.60;;;6.70;;
2992;SDS011;1506;48.932;9.478;2023-02-21T17:43:42;6.37;;;6.07;;
2992;SDS011;1506;48.932;9.478;2023-02-21T17:46:11;9.23;;;8.30;;
2992;SDS011;1506;48.932;9.478;2023-02-21T17:48:39;10.90;;;6.80;;
2992;SDS011;1506;48.932;9.478;2023-02-21T17:51:08;13.23;;;7.80;;
2992;SDS011;1506;48.932;9.478;2023-02-21T17:53:35;12.33;;;7.30;;
2992;SDS011;1506;48.932;9.478;2023-02-21T17:56:03;4.87;;;4.47;;
2992;SDS011;1506;48.932;9.478;2023-02-21T17:58:30;5.70;;;4.50;;
2992;SDS011;1506;48.932;9.478;2023-02-21T18:00:58;5.20;;;4.80;;
2992;SDS011;1506;48.932;9.478;2023-02-21T18:03:25;5.53;;;4.53;;
2992;SDS011;1506;48.932;9.478;2023-02-21T18:05:53;5.73;;;5.20;;
2992;SDS011;1506;48.932;9.478;2023-02-21T18:08:20;9.70;;;7.30;;
2992;SDS011;1506;48.932;9.478;2023-02-21T18:10:47;10.70;;;6.90;;
2992;SDS011;1506;48.932;9.478;2023-02-21T18:13:20;10.50;;;6.00;;
2992;SDS011;1506;48.932;9.478;2023-02-21T18:15:48;8.60;;;6.60;;
2992;SDS011;1506;48.932;9.478;2023-02-21T18:18:16;18.27;;;12.23;;
2992;SDS011;1506;48.932;9.478;2023-02-21T18:20:43;33.43;;;14.20;;